Time;durP1;ratioP1;P1;durP2;ratioP2;P2;SDS_P1;SDS_P2;PMS_P1;PMS_P2;Temp;Humidity;BMP_temperature;BMP_pressure;BME280_temperature;BME280_humidity;BME280_pressure;Samples;Min_cycle;Max_cycle;Signal;HPM_P1;HPM_P2
2023/05/19 00:00:30;;;;;;;;;;;11.60;99.90;;;;;;4928978;29;19982;-76
2023/05/19 00:02:59;;;;;;;;;;;11.60;99.90;;;;;;4921102;29;20465;-76
2023/05/19 00:05:26;;;;;;;;;;;11.60;99.90;;;;;;4936274;29;19938;-76
2023/05/19 00:07:57;;;;;;;;;;;11.60;99.90;;;;;;4934250;29;19927;-76
2023/05/19 00:10:26;;;;;;;;;;;11.60;99.90;;;;;;4942777;29;19950;-76
2023/05/19 00:12:55;;;;;;;;;;;11.60;99.90;;;;;;4934323;29;19927;-76
2023/05/19 00:15:24;;;;;;;;;;;11.50;99.90;;;;;;4938788;29;20318;-76
2023/05/19 00:17:51;;;;;;;;;;;11.50;99.90;;;;;;4932946;29;20013;-76
2023/05/19 00:20:18;;;;;;;;;;;11.50;99.90;;;;;;4934515;29;19934;-76
2023/05/19 00:22:44;;;;;;;;;;;11.50;99.90;;;;;;4937389;29;19948;-76
2023/05/19 00:25:14;;;;;;;;;;;11.50;99.90;;;;;;4929890;29;20017;-76
2023/05/19 00:27:41;;;;;;;;;;;11.50;99.90;;;;;;4935090;29;19961;-76
2023/05/19 00:30:10;;;;;;;;;;;11.50;99.90;;;;;;4932639;29;19949;-76
2023/05/19 00:32:37;;;;;;;;;;;11.50;99.90;;;;;;4917428;29;19927;-76
2023/05/19 00:35:04;;;;;;;;;;;11.50;99.90;;;;;;4912299;29;19933;-76
2023/05/19 00:37:31;;;;;;;;;;;11.50;99.90;;;;;;4921049;29;19990;-76
2023/05/19 00:39:58;;;;;;;;;;;11.40;99.90;;;;;;4933099;29;19941;-76
2023/05/19 00:42:25;;;;;;;;;;;11.40;99.90;;;;;;4942052;28;19934;-76
2023/05/19 00:44:57;;;;;;;;;;;11.40;99.90;;;;;;4931703;29;19931;-77
2023/05/19 00:47:28;;;;;;;;;;;11.40;99.90;;;;;;4929618;29;19927;-76
2023/05/19 00:49:57;;;;;;;;;;;11.40;99.90;;;;;;4926231;29;20428;-76
2023/05/19 00:52:24;;;;;;;;;;;11.40;99.90;;;;;;4924606;29;19927;-76
2023/05/19 00:54:52;;;;;;;;;;;11.40;99.90;;;;;;4928802;29;20346;-77
2023/05/19 00:57:19;;;;;;;;;;;11.40;99.90;;;;;;4914802;29;19982;-76
2023/05/19 00:59:46;;;;;;;;;;;11.30;99.90;;;;;;4925712;29;19933;-76
2023/05/19 01:02:13;;;;;;;;;;;11.40;99.90;;;;;;4927040;29;19946;-77
2023/05/19 01:04:42;;;;;;;;;;;11.30;99.90;;;;;;4931885;29;20013;-76
2023/05/19 01:07:10;;;;;;;;;;;11.40;99.90;;;;;;4929695;29;20358;-76
2023/05/19 01:09:37;;;;;;;;;;;11.30;99.90;;;;;;4928677;29;20018;-76
2023/05/19 01:12:04;;;;;;;;;;;11.30;99.90;;;;;;4923107;29;19941;-76
2023/05/19 01:14:31;;;;;;;;;;;11.30;99.90;;;;;;4932207;29;19942;-76
2023/05/19 01:17:04;;;;;;;;;;;11.30;99.90;;;;;;4929444;29;19939;-76
2023/05/19 01:19:38;;;;;;;;;;;11.30;99.90;;;;;;4929854;29;19935;-76
2023/05/19 01:22:21;;;;;;;;;;;11.30;99.90;;;;;;4924000;29;19931;-76
2023/05/19 01:25:09;;;;;;;;;;;11.30;99.90;;;;;;4926466;29;19935;-76
2023/05/19 01:27:42;;;;;;;;;;;11.30;99.90;;;;;;4927954;29;20391;-76
2023/05/19 01:30:30;;;;;;;;;;;11.30;99.90;;;;;;4926747;29;19933;-77
2023/05/19 01:32:59;;;;;;;;;;;11.30;99.90;;;;;;4912669;29;19931;-77
2023/05/19 01:35:26;;;;;;;;;;;11.30;99.90;;;;;;4924367;29;19996;-76
2023/05/19 01:37:54;;;;;;;;;;;11.20;99.90;;;;;;4930253;29;19927;-77
2023/05/19 01:40:22;;;;;;;;;;;11.30;99.90;;;;;;4922695;29;20041;-76
2023/05/19 01:42:49;;;;;;;;;;;11.20;99.90;;;;;;4911944;29;19982;-76
2023/05/19 01:45:16;;;;;;;;;;;11.20;99.90;;;;;;4925726;29;19974;-76
2023/05/19 01:47:52;;;;;;;;;;;11.20;99.90;;;;;;4922187;29;19949;-76
2023/05/19 01:50:19;;;;;;;;;;;11.20;99.90;;;;;;4923656;29;19927;-76
2023/05/19 01:52:46;;;;;;;;;;;11.20;99.90;;;;;;4931865;28;19931;-76
2023/05/19 01:55:13;;;;;;;;;;;11.20;99.90;;;;;;4911897;29;20006;-76
2023/05/19 01:57:46;;;;;;;;;;;11.20;99.90;;;;;;4927182;29;20003;-76
2023/05/19 02:00:16;;;;;;;;;;;11.20;99.90;;;;;;4926744;29;19961;-77
2023/05/19 02:02:53;;;;;;;;;;;11.20;99.90;;;;;;4925141;29;20021;-76
2023/05/19 02:05:28;;;;;;;;;;;11.10;99.90;;;;;;4927063;29;19926;-76
2023/05/19 02:08:01;;;;;;;;;;;11.20;99.90;;;;;;4929694;29;19934;-76
2023/05/19 02:10:29;;;;;;;;;;;11.10;99.90;;;;;;4926817;29;19927;-76
2023/05/19 02:12:58;;;;;;;;;;;11.20;99.90;;;;;;4910679;29;19933;-76
2023/05/19 02:15:29;;;;;;;;;;;11.10;99.90;;;;;;4932183;29;20305;-76
2023/05/19 02:17:59;;;;;;;;;;;11.10;99.90;;;;;;4935269;28;20385;-76
2023/05/19 02:20:25;;;;;;;;;;;11.10;99.90;;;;;;4934272;29;19954;-76
2023/05/19 02:22:52;;;;;;;;;;;11.10;99.90;;;;;;4913455;29;20023;-76
2023/05/19 02:25:20;;;;;;;;;;;11.10;99.90;;;;;;4931460;29;19935;-76
2023/05/19 02:27:47;;;;;;;;;;;11.10;99.90;;;;;;4925536;29;20553;-76
2023/05/19 02:30:14;;;;;;;;;;;11.10;99.90;;;;;;4933255;29;19927;-76
2023/05/19 02:32:41;;;;;;;;;;;11.10;99.90;;;;;;4924005;29;20405;-76
2023/05/19 02:35:11;;;;;;;;;;;11.10;99.90;;;;;;4937454;29;20369;-76
2023/05/19 02:37:38;;;;;;;;;;;11.00;99.90;;;;;;4927797;29;20620;-76
2023/05/19 02:40:06;;;;;;;;;;;11.10;99.90;;;;;;4930198;29;19927;-76
2023/05/19 02:42:32;;;;;;;;;;;11.00;99.90;;;;;;4914903;29;20394;-76
2023/05/19 02:45:00;;;;;;;;;;;11.10;99.90;;;;;;4914021;29;19938;-77
2023/05/19 02:47:26;;;;;;;;;;;11.00;99.90;;;;;;4917509;29;19934;-76
2023/05/19 02:49:55;;;;;;;;;;;11.00;99.90;;;;;;4927844;29;19985;-76
2023/05/19 02:52:23;;;;;;;;;;;11.00;99.90;;;;;;4928244;29;20390;-76
2023/05/19 02:54:50;;;;;;;;;;;11.00;99.90;;;;;;4910150;29;20421;-76
2023/05/19 02:57:18;;;;;;;;;;;11.00;99.90;;;;;;4909043;29;19983;-76
2023/05/19 02:59:45;;;;;;;;;;;11.00;99.90;;;;;;4922973;29;20441;-76
2023/05/19 03:02:12;;;;;;;;;;;11.00;99.90;;;;;;4939659;29;19927;-76
2023/05/19 03:04:40;;;;;;;;;;;11.00;99.90;;;;;;4932672;29;19927;-76
2023/05/19 03:07:09;;;;;;;;;;;11.00;99.90;;;;;;4926266;29;19927;-76
2023/05/19 03:09:37;;;;;;;;;;;10.90;99.90;;;;;;4913530;29;19945;-76
2023/05/19 03:12:06;;;;;;;;;;;10.90;99.90;;;;;;4916516;29;20568;-76
2023/05/19 03:14:36;;;;;;;;;;;10.90;99.90;;;;;;4933324;29;20326;-76
2023/05/19 03:17:03;;;;;;;;;;;10.90;99.90;;;;;;4916907;29;20277;-76
2023/05/19 03:19:31;;;;;;;;;;;10.90;99.90;;;;;;4914966;29;20010;-77
2023/05/19 03:21:58;;;;;;;;;;;10.90;99.90;;;;;;4918473;29;19927;-76
2023/05/19 03:24:24;;;;;;;;;;;10.90;99.90;;;;;;4913490;29;19927;-76
2023/05/19 03:26:53;;;;;;;;;;;10.90;99.90;;;;;;4932847;29;19931;-76
2023/05/19 03:29:23;;;;;;;;;;;10.90;99.90;;;;;;4934334;29;20002;-76
2023/05/19 03:31:51;;;;;;;;;;;10.90;99.90;;;;;;4922309;29;20583;-76
2023/05/19 03:34:18;;;;;;;;;;;10.90;99.90;;;;;;4920590;29;19941;-76
2023/05/19 03:36:48;;;;;;;;;;;10.90;99.90;;;;;;4937059;29;20358;-76
2023/05/19 03:39:16;;;;;;;;;;;10.90;99.90;;;;;;4925190;29;20317;-76
2023/05/19 03:41:43;;;;;;;;;;;10.90;99.90;;;;;;4916033;29;19927;-76
2023/05/19 03:44:11;;;;;;;;;;;10.90;99.90;;;;;;4926924;29;20344;-76
2023/05/19 03:46:38;;;;;;;;;;;10.80;99.90;;;;;;4940993;28;20401;-75
2023/05/19 03:49:25;;;;;;;;;;;10.90;99.90;;;;;;4934661;29;19927;-74
2023/05/19 03:52:24;;;;;;;;;;;10.90;99.90;;;;;;4926189;29;20417;-76
2023/05/19 03:55:00;;;;;;;;;;;10.80;99.90;;;;;;4923143;29;20401;-76
2023/05/19 03:57:28;;;;;;;;;;;10.80;99.90;;;;;;4932388;29;19935;-77
2023/05/19 03:59:56;;;;;;;;;;;10.80;99.90;;;;;;4932834;29;19931;-76
2023/05/19 04:02:23;;;;;;;;;;;10.80;99.90;;;;;;4932206;29;20014;-76
2023/05/19 04:04:50;;;;;;;;;;;10.80;99.90;;;;;;4930245;29;19941;-76
2023/05/19 04:07:17;;;;;;;;;;;10.80;99.90;;;;;;4936102;29;19954;-77
2023/05/19 04:09:44;;;;;;;;;;;10.80;99.90;;;;;;4933944;29;19958;-75
2023/05/19 04:12:11;;;;;;;;;;;10.80;99.90;;;;;;4935653;28;19927;-77
2023/05/19 04:14:38;;;;;;;;;;;10.80;99.90;;;;;;4930593;29;19937;-76
2023/05/19 04:17:07;;;;;;;;;;;10.80;99.90;;;;;;4911436;29;19962;-76
2023/05/19 04:19:34;;;;;;;;;;;10.80;99.90;;;;;;4934250;29;20448;-76
2023/05/19 04:22:01;;;;;;;;;;;10.80;99.90;;;;;;4930741;29;19982;-77
2023/05/19 04:24:29;;;;;;;;;;;10.80;99.90;;;;;;4912684;29;19927;-77
2023/05/19 04:27:01;;;;;;;;;;;10.80;99.90;;;;;;4918171;29;20522;-77
2023/05/19 04:29:28;;;;;;;;;;;10.70;99.90;;;;;;4929991;29;19983;-76
2023/05/19 04:31:55;;;;;;;;;;;10.70;99.90;;;;;;4930877;29;19927;-76
2023/05/19 04:34:24;;;;;;;;;;;10.70;99.90;;;;;;4921393;29;19935;-76
2023/05/19 04:36:52;;;;;;;;;;;10.70;99.90;;;;;;4921422;29;20034;-76
2023/05/19 04:39:20;;;;;;;;;;;10.70;99.90;;;;;;4933860;29;19927;-76
2023/05/19 04:41:47;;;;;;;;;;;10.70;99.90;;;;;;4931136;29;19965;-76
2023/05/19 04:44:16;;;;;;;;;;;10.70;99.90;;;;;;4937581;29;19927;-76
2023/05/19 04:46:45;;;;;;;;;;;10.70;99.90;;;;;;4928402;29;20017;-76
2023/05/19 04:49:13;;;;;;;;;;;10.70;99.90;;;;;;4913475;29;20021;-76
2023/05/19 04:51:41;;;;;;;;;;;10.70;99.90;;;;;;4927618;29;19935;-78
2023/05/19 04:54:10;;;;;;;;;;;10.70;99.90;;;;;;4925151;29;20361;-77
2023/05/19 04:56:37;;;;;;;;;;;10.70;99.90;;;;;;4931649;29;20453;-77
2023/05/19 04:59:05;;;;;;;;;;;10.70;99.90;;;;;;4928180;29;19934;-75
2023/05/19 05:01:33;;;;;;;;;;;10.70;99.90;;;;;;4931222;29;19933;-77
2023/05/19 05:04:01;;;;;;;;;;;10.60;99.90;;;;;;4917369;29;20374;-76
2023/05/19 05:06:28;;;;;;;;;;;10.70;99.90;;;;;;4925162;29;19927;-74
2023/05/19 05:09:09;;;;;;;;;;;10.60;99.90;;;;;;4930667;29;20298;-76
2023/05/19 05:11:38;;;;;;;;;;;10.60;99.90;;;;;;4929236;29;19974;-76
2023/05/19 05:14:09;;;;;;;;;;;10.60;99.90;;;;;;4916004;29;19935;-75
2023/05/19 05:16:39;;;;;;;;;;;10.70;99.90;;;;;;4929799;29;19931;-77
2023/05/19 05:19:21;;;;;;;;;;;10.70;99.90;;;;;;4929225;29;19926;-76
2023/05/19 05:21:50;;;;;;;;;;;10.70;99.90;;;;;;4914557;29;19927;-74
2023/05/19 05:24:19;;;;;;;;;;;10.70;99.90;;;;;;4922181;29;19935;-76
2023/05/19 05:26:51;;;;;;;;;;;10.70;99.90;;;;;;4927173;29;19982;-76
2023/05/19 05:29:18;;;;;;;;;;;10.70;99.90;;;;;;4931432;29;19931;-76
2023/05/19 05:31:45;;;;;;;;;;;10.60;99.90;;;;;;4909750;29;19939;-75
2023/05/19 05:34:12;;;;;;;;;;;10.60;99.90;;;;;;4928341;29;19927;-76
2023/05/19 05:36:39;;;;;;;;;;;10.60;99.90;;;;;;4929629;29;20055;-76
2023/05/19 05:39:10;;;;;;;;;;;10.60;99.90;;;;;;4914223;29;19927;-76
2023/05/19 05:41:40;;;;;;;;;;;10.60;99.90;;;;;;4932507;29;19938;-76
2023/05/19 05:44:12;;;;;;;;;;;10.60;99.90;;;;;;4933514;29;19935;-76
2023/05/19 05:46:46;;;;;;;;;;;10.60;99.90;;;;;;4916486;29;19977;-76
2023/05/19 05:49:14;;;;;;;;;;;10.60;99.90;;;;;;4911405;29;19927;-76
2023/05/19 05:51:45;;;;;;;;;;;10.60;99.90;;;;;;4934263;29;19927;-75
2023/05/19 05:54:13;;;;;;;;;;;10.60;99.90;;;;;;4910667;29;19934;-76
2023/05/19 05:56:46;;;;;;;;;;;10.60;99.90;;;;;;4928468;29;19930;-77
2023/05/19 05:59:14;;;;;;;;;;;10.60;99.90;;;;;;4918755;29;19958;-77
2023/05/19 06:01:42;;;;;;;;;;;10.60;99.90;;;;;;4918316;29;19937;-76
2023/05/19 06:04:10;;;;;;;;;;;10.60;99.90;;;;;;4931779;29;19931;-76
2023/05/19 06:06:37;;;;;;;;;;;10.60;99.90;;;;;;4917934;29;19930;-77
2023/05/19 06:09:05;;;;;;;;;;;10.60;99.90;;;;;;4914734;29;19938;-75
2023/05/19 06:11:32;;;;;;;;;;;10.60;99.90;;;;;;4932152;29;19970;-76
2023/05/19 06:14:01;;;;;;;;;;;10.60;99.90;;;;;;4908010;29;20386;-76
2023/05/19 06:16:48;;;;;;;;;;;10.60;99.90;;;;;;4929391;29;19926;-76
2023/05/19 06:19:18;;;;;;;;;;;10.60;99.90;;;;;;4925193;29;20404;-76
2023/05/19 06:21:45;;;;;;;;;;;10.60;99.90;;;;;;4917048;29;20484;-76
2023/05/19 06:24:12;;;;;;;;;;;10.60;99.90;;;;;;4913396;29;19931;-76
2023/05/19 06:26:39;;;;;;;;;;;10.60;99.90;;;;;;4938908;29;19981;-76
2023/05/19 06:29:07;;;;;;;;;;;10.60;99.90;;;;;;4930281;29;20350;-76
2023/05/19 06:31:34;;;;;;;;;;;10.60;99.90;;;;;;4911272;29;19931;-76
2023/05/19 06:34:11;;;;;;;;;;;10.60;99.90;;;;;;4914218;29;20030;-76
2023/05/19 06:36:40;;;;;;;;;;;10.60;99.90;;;;;;4937480;29;20471;-75
2023/05/19 06:39:07;;;;;;;;;;;10.60;99.90;;;;;;4909603;29;19926;-76
2023/05/19 06:41:34;;;;;;;;;;;10.60;99.90;;;;;;4940844;29;19927;-75
2023/05/19 06:44:01;;;;;;;;;;;10.60;99.90;;;;;;4936588;29;19938;-75
2023/05/19 06:46:33;;;;;;;;;;;10.60;99.90;;;;;;4922672;29;19964;-76
2023/05/19 06:49:00;;;;;;;;;;;10.70;99.90;;;;;;4940831;29;19927;-76
2023/05/19 06:51:30;;;;;;;;;;;10.60;99.90;;;;;;4937536;28;20021;-76
2023/05/19 06:53:57;;;;;;;;;;;10.60;99.90;;;;;;4912448;29;19926;-78
2023/05/19 06:56:24;;;;;;;;;;;10.70;99.90;;;;;;4929852;29;20456;-77
2023/05/19 06:58:52;;;;;;;;;;;10.70;99.90;;;;;;4919683;29;19926;-77
2023/05/19 07:01:22;;;;;;;;;;;10.60;99.90;;;;;;4913607;29;19966;-76
2023/05/19 07:03:55;;;;;;;;;;;10.60;99.90;;;;;;4913422;29;19958;-76
2023/05/19 07:06:22;;;;;;;;;;;10.70;99.90;;;;;;4932322;29;20397;-76
2023/05/19 07:08:50;;;;;;;;;;;10.70;99.90;;;;;;4911830;29;19931;-76
2023/05/19 07:11:17;;;;;;;;;;;10.70;99.90;;;;;;4921206;28;20013;-76
2023/05/19 07:13:44;;;;;;;;;;;10.70;99.90;;;;;;4934867;29;19930;-76
2023/05/19 07:16:12;;;;;;;;;;;10.70;99.90;;;;;;4932975;29;19938;-76
2023/05/19 07:18:39;;;;;;;;;;;10.70;99.90;;;;;;4913984;29;20017;-77
2023/05/19 07:21:08;;;;;;;;;;;10.70;99.90;;;;;;4934642;29;19937;-76
2023/05/19 07:23:34;;;;;;;;;;;10.70;99.90;;;;;;4927288;29;20372;-76
2023/05/19 07:26:01;;;;;;;;;;;10.70;99.90;;;;;;4925858;29;20406;-75
2023/05/19 07:28:28;;;;;;;;;;;10.70;99.90;;;;;;4920332;29;19933;-75
2023/05/19 07:30:55;;;;;;;;;;;10.80;99.90;;;;;;4924916;29;19930;-75
2023/05/19 07:33:22;;;;;;;;;;;10.80;99.90;;;;;;4927813;29;20458;-75
2023/05/19 07:35:49;;;;;;;;;;;10.80;99.90;;;;;;4925678;29;20571;-76
2023/05/19 07:38:17;;;;;;;;;;;10.80;99.90;;;;;;4921008;29;19931;-75
2023/05/19 07:40:44;;;;;;;;;;;10.80;99.90;;;;;;4925203;29;20305;-75
2023/05/19 07:43:11;;;;;;;;;;;10.80;99.90;;;;;;4928505;29;19931;-77
2023/05/19 07:45:38;;;;;;;;;;;10.80;99.90;;;;;;4926393;29;19930;-77
2023/05/19 07:48:06;;;;;;;;;;;10.80;99.90;;;;;;4914502;29;19926;-78
2023/05/19 07:50:33;;;;;;;;;;;11.00;99.90;;;;;;4925094;29;20242;-77
2023/05/19 07:53:00;;;;;;;;;;;11.20;99.90;;;;;;4930955;29;19934;-77
2023/05/19 07:55:28;;;;;;;;;;;11.40;99.90;;;;;;4927052;29;19959;-76
2023/05/19 07:57:56;;;;;;;;;;;11.40;99.90;;;;;;4916207;29;19927;-76
2023/05/19 08:00:23;;;;;;;;;;;11.30;99.90;;;;;;4927231;29;19938;-76
2023/05/19 08:02:50;;;;;;;;;;;11.20;99.90;;;;;;4916142;29;19933;-76
2023/05/19 08:05:17;;;;;;;;;;;11.20;99.90;;;;;;4927592;29;19930;-76
2023/05/19 08:07:44;;;;;;;;;;;11.20;99.90;;;;;;4936853;29;19934;-76
2023/05/19 08:10:11;;;;;;;;;;;11.20;99.90;;;;;;4950066;29;19927;-76
2023/05/19 08:12:39;;;;;;;;;;;11.20;99.90;;;;;;4939177;28;19986;-76
2023/05/19 08:15:06;;;;;;;;;;;11.20;99.90;;;;;;4933267;29;19927;-76
2023/05/19 08:17:33;;;;;;;;;;;11.20;99.90;;;;;;4934808;29;19970;-76
2023/05/19 08:20:02;;;;;;;;;;;11.20;99.90;;;;;;4932765;29;19927;-77
2023/05/19 08:22:29;;;;;;;;;;;11.30;99.90;;;;;;4935527;29;19982;-76
2023/05/19 08:24:56;;;;;;;;;;;11.30;99.90;;;;;;4929847;29;20542;-76
2023/05/19 08:27:23;;;;;;;;;;;11.30;99.90;;;;;;4907994;29;20384;-76
2023/05/19 08:29:51;;;;;;;;;;;11.30;99.90;;;;;;4932912;29;20694;-76
2023/05/19 08:32:18;;;;;;;;;;;11.40;99.90;;;;;;4937024;29;19927;-76
2023/05/19 08:34:45;;;;;;;;;;;11.40;99.90;;;;;;4923199;29;20017;-76
2023/05/19 08:37:13;;;;;;;;;;;11.40;99.90;;;;;;4933564;29;19939;-76
2023/05/19 08:39:39;;;;;;;;;;;11.40;99.90;;;;;;4936099;29;19927;-77
2023/05/19 08:42:08;;;;;;;;;;;11.40;99.90;;;;;;4929309;29;19942;-76
2023/05/19 08:44:35;;;;;;;;;;;11.50;99.90;;;;;;4938180;29;20412;-76
2023/05/19 08:47:05;;;;;;;;;;;11.50;99.90;;;;;;4932342;29;19955;-76
2023/05/19 08:49:33;;;;;;;;;;;11.50;99.90;;;;;;4935530;29;20022;-76
2023/05/19 08:52:02;;;;;;;;;;;11.50;99.90;;;;;;4931658;29;19934;-76
2023/05/19 08:54:32;;;;;;;;;;;11.50;99.90;;;;;;4925523;29;20010;-76
2023/05/19 08:57:00;;;;;;;;;;;11.50;99.90;;;;;;4943881;29;20227;-76
2023/05/19 08:59:27;;;;;;;;;;;11.50;99.90;;;;;;4933912;29;19934;-76
2023/05/19 09:01:55;;;;;;;;;;;11.60;99.90;;;;;;4929960;29;19927;-76
2023/05/19 09:04:26;;;;;;;;;;;11.60;99.90;;;;;;4934239;29;19927;-75
2023/05/19 09:06:53;;;;;;;;;;;11.60;99.90;;;;;;4933863;29;19982;-76
2023/05/19 09:09:20;;;;;;;;;;;11.70;99.90;;;;;;4933371;29;19930;-77
2023/05/19 09:11:47;;;;;;;;;;;11.60;99.90;;;;;;4933923;29;20390;-76
2023/05/19 09:14:14;;;;;;;;;;;11.60;99.90;;;;;;4932881;29;19926;-76
2023/05/19 09:16:41;;;;;;;;;;;11.70;99.90;;;;;;4932980;29;20372;-76
2023/05/19 09:19:15;;;;;;;;;;;11.70;99.90;;;;;;4936393;29;19931;-76
2023/05/19 09:21:44;;;;;;;;;;;11.70;99.90;;;;;;4934733;29;20017;-76
2023/05/19 09:24:11;;;;;;;;;;;11.70;99.90;;;;;;4930933;29;19927;-77
2023/05/19 09:26:38;;;;;;;;;;;11.70;99.90;;;;;;4930904;29;20032;-77
2023/05/19 09:29:10;;;;;;;;;;;11.70;99.90;;;;;;4937389;29;19934;-76
2023/05/19 09:31:37;;;;;;;;;;;11.70;99.90;;;;;;4934545;29;20365;-77
2023/05/19 09:34:04;;;;;;;;;;;11.70;99.90;;;;;;4932548;29;19931;-75
2023/05/19 09:36:31;;;;;;;;;;;11.80;99.90;;;;;;4932886;29;19926;-76
2023/05/19 09:38:59;;;;;;;;;;;11.80;99.90;;;;;;4928881;29;19962;-76
2023/05/19 09:41:26;;;;;;;;;;;11.80;99.90;;;;;;4926423;29;19962;-76
2023/05/19 09:43:54;;;;;;;;;;;11.80;99.90;;;;;;4912403;29;19974;-76
2023/05/19 09:46:25;;;;;;;;;;;11.80;99.90;;;;;;4938916;29;19926;-75
2023/05/19 09:48:56;;;;;;;;;;;11.80;99.90;;;;;;4918632;29;19927;-76
2023/05/19 09:51:23;;;;;;;;;;;11.90;99.90;;;;;;4927345;29;20376;-76
2023/05/19 09:53:50;;;;;;;;;;;11.90;99.90;;;;;;4929482;29;19982;-76
2023/05/19 09:56:22;;;;;;;;;;;11.90;99.90;;;;;;4932810;29;19952;-76
2023/05/19 09:58:49;;;;;;;;;;;11.90;99.90;;;;;;4920260;29;19934;-76
2023/05/19 10:01:16;;;;;;;;;;;11.90;99.90;;;;;;4930925;29;19942;-76
2023/05/19 10:03:44;;;;;;;;;;;11.90;99.90;;;;;;4912365;29;20179;-76
2023/05/19 10:06:11;;;;;;;;;;;11.90;99.90;;;;;;4934505;29;19974;-76
2023/05/19 10:08:41;;;;;;;;;;;12.00;99.90;;;;;;4936791;28;19931;-76
2023/05/19 10:11:08;;;;;;;;;;;12.00;99.90;;;;;;4933824;29;19973;-76
2023/05/19 10:13:37;;;;;;;;;;;12.00;99.90;;;;;;4934195;28;20022;-76
2023/05/19 10:16:05;;;;;;;;;;;12.00;99.90;;;;;;4926556;29;19938;-76
2023/05/19 10:18:33;;;;;;;;;;;12.10;99.90;;;;;;4934367;29;19933;-76
2023/05/19 10:21:00;;;;;;;;;;;12.10;99.90;;;;;;4937555;28;20626;-76
2023/05/19 10:23:29;;;;;;;;;;;12.10;99.90;;;;;;4919477;29;19927;-76
2023/05/19 10:25:58;;;;;;;;;;;12.10;99.90;;;;;;4920017;29;20473;-75
2023/05/19 10:28:31;;;;;;;;;;;12.20;99.90;;;;;;4925061;29;20479;-77
2023/05/19 10:31:01;;;;;;;;;;;12.30;99.90;;;;;;4925227;29;19951;-77
2023/05/19 10:33:36;;;;;;;;;;;12.30;99.90;;;;;;4930277;29;19982;-77
2023/05/19 10:36:09;;;;;;;;;;;12.40;99.90;;;;;;4920479;29;19935;-77
2023/05/19 10:38:42;;;;;;;;;;;12.40;99.90;;;;;;4935878;29;19931;-77
2023/05/19 10:41:11;;;;;;;;;;;12.40;99.90;;;;;;4935578;29;19977;-77
2023/05/19 10:43:44;;;;;;;;;;;12.40;99.90;;;;;;4922110;28;19931;-76
2023/05/19 10:46:12;;;;;;;;;;;12.40;99.90;;;;;;4932583;29;20381;-76
2023/05/19 10:48:43;;;;;;;;;;;12.50;99.90;;;;;;4924997;29;19942;-76
2023/05/19 10:51:11;;;;;;;;;;;12.50;99.90;;;;;;4930241;29;19927;-76
2023/05/19 10:53:45;;;;;;;;;;;12.50;99.90;;;;;;4925123;29;19937;-77
2023/05/19 10:56:12;;;;;;;;;;;12.50;99.90;;;;;;4926925;29;20017;-76
2023/05/19 10:58:40;;;;;;;;;;;12.50;99.90;;;;;;4914184;29;20350;-76
2023/05/19 11:01:08;;;;;;;;;;;12.50;99.90;;;;;;4933821;29;19951;-76
2023/05/19 11:03:47;;;;;;;;;;;12.50;99.90;;;;;;4930017;29;20019;-76
2023/05/19 11:06:25;;;;;;;;;;;12.50;99.90;;;;;;4928326;29;19934;-77
2023/05/19 11:08:59;;;;;;;;;;;12.50;99.90;;;;;;4927534;29;19982;-77
2023/05/19 11:11:27;;;;;;;;;;;12.60;99.90;;;;;;4926551;29;19985;-77
2023/05/19 11:13:54;;;;;;;;;;;12.60;99.90;;;;;;4932461;29;19931;-77
2023/05/19 11:16:28;;;;;;;;;;;12.60;99.90;;;;;;4912842;29;20418;-77
2023/05/19 11:18:58;;;;;;;;;;;12.60;99.90;;;;;;4930826;29;19969;-76
2023/05/19 11:21:40;;;;;;;;;;;12.70;99.90;;;;;;4910746;29;20052;-77
2023/05/19 11:24:08;;;;;;;;;;;12.70;99.90;;;;;;4929599;29;19930;-77
2023/05/19 11:26:44;;;;;;;;;;;12.70;99.90;;;;;;4921397;29;19934;-78
2023/05/19 11:29:11;;;;;;;;;;;12.70;99.90;;;;;;4929501;29;19965;-76
2023/05/19 11:31:39;;;;;;;;;;;12.70;99.90;;;;;;4929746;29;19938;-75
2023/05/19 11:34:07;;;;;;;;;;;12.70;99.90;;;;;;4924434;29;19934;-76
2023/05/19 11:36:36;;;;;;;;;;;12.70;99.90;;;;;;4932427;29;22104;-77
2023/05/19 11:39:03;;;;;;;;;;;12.80;99.90;;;;;;4930191;29;20305;-76
2023/05/19 11:41:30;;;;;;;;;;;12.80;99.90;;;;;;4930283;29;19999;-75
2023/05/19 11:43:57;;;;;;;;;;;12.80;99.90;;;;;;4931814;29;19934;-75
2023/05/19 11:46:24;;;;;;;;;;;12.90;99.90;;;;;;4925900;29;19931;-76
2023/05/19 11:48:53;;;;;;;;;;;12.90;99.90;;;;;;4947754;28;20290;-76
2023/05/19 11:51:22;;;;;;;;;;;12.80;99.90;;;;;;4919244;29;19962;-76
2023/05/19 11:53:52;;;;;;;;;;;12.90;99.90;;;;;;4925354;29;19977;-75
2023/05/19 11:56:19;;;;;;;;;;;12.90;99.90;;;;;;4911137;29;19933;-76
2023/05/19 11:58:45;;;;;;;;;;;12.90;99.90;;;;;;4934142;29;19931;-76
2023/05/19 12:01:12;;;;;;;;;;;12.90;99.90;;;;;;4923514;29;19990;-76
2023/05/19 12:03:39;;;;;;;;;;;12.90;99.90;;;;;;4920740;29;19930;-76
2023/05/19 12:06:07;;;;;;;;;;;12.90;99.90;;;;;;4933163;29;20413;-76
2023/05/19 12:08:37;;;;;;;;;;;12.90;99.90;;;;;;4936644;29;19978;-76
2023/05/19 12:11:04;;;;;;;;;;;12.90;99.90;;;;;;4929441;29;19935;-76
2023/05/19 12:13:31;;;;;;;;;;;12.90;99.90;;;;;;4928577;29;19978;-77
2023/05/19 12:15:59;;;;;;;;;;;12.90;99.90;;;;;;4928737;29;19927;-76
2023/05/19 12:18:30;;;;;;;;;;;12.90;99.90;;;;;;4925771;29;20325;-76
2023/05/19 12:20:57;;;;;;;;;;;13.00;99.90;;;;;;4925981;29;19927;-76
2023/05/19 12:23:24;;;;;;;;;;;13.00;99.90;;;;;;4929761;29;19930;-77
2023/05/19 12:25:52;;;;;;;;;;;13.00;99.90;;;;;;4932389;29;19926;-76
2023/05/19 12:28:20;;;;;;;;;;;13.00;99.90;;;;;;4930004;29;19943;-77
2023/05/19 12:30:47;;;;;;;;;;;13.00;99.90;;;;;;4926905;29;20060;-76
2023/05/19 12:33:15;;;;;;;;;;;13.00;99.90;;;;;;4928406;29;19953;-77
2023/05/19 12:35:42;;;;;;;;;;;13.00;99.90;;;;;;4931942;29;19927;-76
2023/05/19 12:38:09;;;;;;;;;;;13.00;99.90;;;;;;4927996;29;19934;-76
2023/05/19 12:40:36;;;;;;;;;;;13.00;99.90;;;;;;4932566;29;20034;-76
2023/05/19 12:46:32;;;;;;;;;;;13.00;99.90;;;;;;4926829;29;20412;-76
2023/05/19 12:49:04;;;;;;;;;;;13.10;99.90;;;;;;4939415;29;19926;-74
2023/05/19 12:51:31;;;;;;;;;;;13.10;99.90;;;;;;4934198;28;19927;-77
2023/05/19 12:53:58;;;;;;;;;;;13.10;99.90;;;;;;4930144;29;20297;-76
2023/05/19 12:56:25;;;;;;;;;;;13.10;99.90;;;;;;4933814;29;19937;-75
2023/05/19 12:58:54;;;;;;;;;;;13.10;99.90;;;;;;4933425;29;19935;-75
2023/05/19 13:01:22;;;;;;;;;;;13.10;99.90;;;;;;4930687;29;20054;-74
2023/05/19 13:03:52;;;;;;;;;;;13.10;99.90;;;;;;4932797;29;19955;-75
2023/05/19 13:06:20;;;;;;;;;;;13.10;99.90;;;;;;4934126;29;19952;-75
2023/05/19 13:08:47;;;;;;;;;;;13.10;99.90;;;;;;4937772;29;20544;-75
2023/05/19 13:11:14;;;;;;;;;;;13.10;99.90;;;;;;4929472;29;19970;-75
2023/05/19 13:13:41;;;;;;;;;;;13.10;99.90;;;;;;4931113;29;19930;-75
2023/05/19 13:16:08;;;;;;;;;;;13.20;99.90;;;;;;4933775;29;19927;-75
2023/05/19 13:18:36;;;;;;;;;;;13.20;99.90;;;;;;4929628;29;19959;-75
2023/05/19 13:21:04;;;;;;;;;;;13.20;99.90;;;;;;4936092;29;19927;-75
2023/05/19 13:23:31;;;;;;;;;;;13.20;99.90;;;;;;4917780;29;19978;-75
2023/05/19 13:25:58;;;;;;;;;;;13.20;99.90;;;;;;4932809;29;19937;-75
2023/05/19 13:28:25;;;;;;;;;;;13.20;99.90;;;;;;4931050;29;19934;-75
2023/05/19 13:30:52;;;;;;;;;;;13.20;99.90;;;;;;4934674;29;19958;-75
2023/05/19 13:33:19;;;;;;;;;;;13.20;99.90;;;;;;4926558;28;19933;-75
2023/05/19 13:35:46;;;;;;;;;;;13.20;99.90;;;;;;4924955;29;20378;-76
2023/05/19 13:38:14;;;;;;;;;;;13.20;99.90;;;;;;4930740;29;19990;-75
2023/05/19 13:40:41;;;;;;;;;;;13.20;99.90;;;;;;4931330;29;19982;-76
2023/05/19 13:43:08;;;;;;;;;;;13.20;99.90;;;;;;4932921;29;19939;-77
2023/05/19 13:45:35;;;;;;;;;;;13.20;99.90;;;;;;4921185;29;19973;-76
2023/05/19 13:48:02;;;;;;;;;;;13.20;99.90;;;;;;4930079;29;19927;-76
2023/05/19 13:50:33;;;;;;;;;;;13.20;99.90;;;;;;4936217;29;19926;-77
2023/05/19 13:52:59;;;;;;;;;;;13.20;99.90;;;;;;4926888;29;19934;-76
2023/05/19 13:55:27;;;;;;;;;;;13.30;99.90;;;;;;4935396;29;20401;-76
2023/05/19 13:57:54;;;;;;;;;;;13.30;99.90;;;;;;4927594;29;20022;-76
2023/05/19 14:00:21;;;;;;;;;;;13.30;99.90;;;;;;4930008;29;19926;-76
2023/05/19 14:02:48;;;;;;;;;;;13.30;99.90;;;;;;4930310;29;19942;-76
2023/05/19 14:05:15;;;;;;;;;;;13.30;99.90;;;;;;4930575;29;20492;-76
2023/05/19 14:07:43;;;;;;;;;;;13.30;99.90;;;;;;4930837;29;20300;-76
2023/05/19 14:10:10;;;;;;;;;;;13.30;99.90;;;;;;4931386;29;19933;-76
2023/05/19 14:12:38;;;;;;;;;;;13.30;99.90;;;;;;4928869;29;19990;-76
2023/05/19 14:15:05;;;;;;;;;;;13.30;99.90;;;;;;4935271;29;19934;-76
2023/05/19 14:17:32;;;;;;;;;;;13.30;99.90;;;;;;4931009;29;20005;-76
2023/05/19 14:20:00;;;;;;;;;;;13.30;99.90;;;;;;4928956;29;19927;-76
2023/05/19 14:22:26;;;;;;;;;;;13.30;99.90;;;;;;4928872;28;19931;-76
2023/05/19 14:24:53;;;;;;;;;;;13.30;99.90;;;;;;4933796;29;19966;-76
2023/05/19 14:27:20;;;;;;;;;;;13.30;99.90;;;;;;4927494;29;19926;-77